createdAt,value
2022-10-17T00:01:40.531Z,9.60
2022-10-17T00:08:58.149Z,11.23
2022-10-17T00:12:24.565Z,16.30
2022-10-17T00:19:44.352Z,12.03
2022-10-17T00:23:10.766Z,8.70
2022-10-17T00:26:43.238Z,7.43
2022-10-17T00:30:09.656Z,7.10
2022-10-17T00:37:28.861Z,9.70
2022-10-17T00:44:35.597Z,11.50
2022-10-17T00:48:02.037Z,12.73
2022-10-17T00:55:20.952Z,6.43
2022-10-17T00:58:47.536Z,7.87
2022-10-17T01:05:56.533Z,7.80
2022-10-17T01:09:11.187Z,10.23
2022-10-17T01:49:48.086Z,9.90
2022-10-17T01:52:24.799Z,13.77
2022-10-17T01:54:59.973Z,6.53
2022-10-17T01:57:35.977Z,11.23
2022-10-17T02:00:06.918Z,8.97
2022-10-17T02:02:34.152Z,9.30
2022-10-17T02:05:02.882Z,10.37
2022-10-17T02:12:21.863Z,11.33
2022-10-17T02:15:14.180Z,5.77
2022-10-17T02:18:26.821Z,8.63
2022-10-17T02:21:59.368Z,9.83
2022-10-17T02:25:06.145Z,11.70
2022-10-17T02:28:12.786Z,7.87
2022-10-17T02:35:36.467Z,9.43
2022-10-17T02:39:02.886Z,10.10
2022-10-17T02:46:22.355Z,10.23
2022-10-17T02:49:48.792Z,7.50
2022-10-17T02:53:15.460Z,9.73
2022-10-17T02:55:49.525Z,5.33
2022-10-17T02:59:19.354Z,9.40
2022-10-17T03:06:29.806Z,9.18
2022-10-17T03:09:56.227Z,13.87
2022-10-17T03:13:22.764Z,8.30
2022-10-17T03:16:49.201Z,9.87
2022-10-17T03:20:15.861Z,12.97
2022-10-17T03:23:42.292Z,14.03
2022-10-17T03:30:19.773Z,9.55
2022-10-17T03:33:46.333Z,13.93
2022-10-17T03:41:06.958Z,7.25
2022-10-17T03:44:33.410Z,15.20
2022-10-17T06:04:45.684Z,9.37
2022-10-17T06:07:20.713Z,4.25
2022-10-17T06:09:47.881Z,5.13
2022-10-17T06:12:14.688Z,3.43
2022-10-17T06:14:41.288Z,5.43
2022-10-17T06:17:12.094Z,7.00
2022-10-17T06:19:41.609Z,5.77
2022-10-17T06:22:08.778Z,7.23
2022-10-17T06:24:35.559Z,7.57
2022-10-17T06:27:02.344Z,7.70
2022-10-17T06:29:29.203Z,4.87
2022-10-17T06:31:56.006Z,5.23
2022-10-17T06:34:23.051Z,7.87
2022-10-17T06:36:50.057Z,7.80
2022-10-17T06:39:16.972Z,3.43
2022-10-17T06:41:44.665Z,9.03
2022-10-17T06:44:12.225Z,7.87
2022-10-17T06:46:40.111Z,8.03
2022-10-17T06:49:07.650Z,4.97
2022-10-17T06:51:37.945Z,5.27
2022-10-17T06:54:05.073Z,6.00
2022-10-17T06:56:31.822Z,6.67
2022-10-17T06:58:58.727Z,4.17
2022-10-17T07:01:25.923Z,3.83
2022-10-17T07:03:52.674Z,5.20
2022-10-17T07:06:19.529Z,5.30
2022-10-17T07:08:46.732Z,4.40
2022-10-17T07:11:15.785Z,5.53
2022-10-17T07:13:43.144Z,7.43
2022-10-17T07:16:11.294Z,7.53
2022-10-17T07:18:38.818Z,6.33
2022-10-17T07:21:06.103Z,6.07
2022-10-17T07:23:36.702Z,5.07
2022-10-17T07:26:08.650Z,5.87
2022-10-17T07:28:39.826Z,4.47
2022-10-17T07:31:08.565Z,5.17
2022-10-17T07:33:35.335Z,8.20
2022-10-17T07:36:03.036Z,4.67
2022-10-17T07:38:30.237Z,5.93
2022-10-17T07:41:02.583Z,4.83
2022-10-17T07:43:30.451Z,3.10
2022-10-17T07:45:57.596Z,4.23
2022-10-17T07:48:25.104Z,5.63
2022-10-17T07:50:52.070Z,5.33
2022-10-17T07:53:19.248Z,7.93
2022-10-17T07:55:51.434Z,4.10
2022-10-17T07:58:18.581Z,6.22
2022-10-17T08:00:48.515Z,9.30
2022-10-17T08:03:15.385Z,5.53
2022-10-17T08:05:42.419Z,5.10
2022-10-17T08:08:09.065Z,8.23
2022-10-17T08:10:35.775Z,4.23
2022-10-17T08:13:02.828Z,5.73
2022-10-17T08:15:31.845Z,4.77
2022-10-17T08:17:59.640Z,5.87
2022-10-17T08:20:26.745Z,4.77
2022-10-17T08:22:55.243Z,8.10
2022-10-17T08:25:23.065Z,9.27
2022-10-17T08:27:49.898Z,3.03
2022-10-17T08:30:17.235Z,4.17
2022-10-17T08:32:44.093Z,9.70
2022-10-17T08:35:10.935Z,4.93
2022-10-17T08:37:37.926Z,5.33
2022-10-17T08:40:05.068Z,4.90
2022-10-17T08:42:50.396Z,5.93
2022-10-17T08:45:32.613Z,7.17
2022-10-17T08:48:10.102Z,4.10
2022-10-17T08:50:38.470Z,7.30
2022-10-17T08:53:13.802Z,4.93
2022-10-17T08:55:45.637Z,5.33
2022-10-17T08:58:20.067Z,5.15
2022-10-17T09:01:01.185Z,6.07
2022-10-17T09:03:32.317Z,7.20
2022-10-17T09:06:16.344Z,8.80
2022-10-17T09:09:07.123Z,4.33
2022-10-17T09:11:42.821Z,3.20
2022-10-17T09:14:37.271Z,4.07
2022-10-17T09:17:09.960Z,5.67
2022-10-17T09:19:56.303Z,7.15
2022-10-17T09:22:28.697Z,8.80
2022-10-17T09:25:58.141Z,4.00
2022-10-17T09:29:10.750Z,5.37
2022-10-17T09:31:49.641Z,5.97
2022-10-17T09:34:16.816Z,1.33
2022-10-17T09:36:44.132Z,4.83
2022-10-17T09:40:13.921Z,5.07
2022-10-17T09:43:40.441Z,4.73
2022-10-17T09:46:19.979Z,4.87
2022-10-17T09:49:16.516Z,4.63
2022-10-17T09:51:44.750Z,3.97
2022-10-17T09:54:20.580Z,7.27
2022-10-17T09:57:01.734Z,5.73
2022-10-17T09:59:56.177Z,5.37
2022-10-17T10:02:25.170Z,5.80
2022-10-17T10:05:37.391Z,3.97
2022-10-17T10:09:04.064Z,2.57
2022-10-17T10:11:50.016Z,6.47
2022-10-17T10:14:24.314Z,4.93
2022-10-17T10:16:53.769Z,2.50
2022-10-17T10:19:30.060Z,4.07
2022-10-17T10:22:05.275Z,4.50
2022-10-17T10:24:33.155Z,4.37
2022-10-17T10:27:03.155Z,4.10
2022-10-17T10:29:41.792Z,2.80
2022-10-17T10:32:20.432Z,11.40
2022-10-17T10:35:00.730Z,3.30
2022-10-17T10:37:38.743Z,3.53
2022-10-17T10:40:15.800Z,5.43
2022-10-17T10:42:42.686Z,6.07
2022-10-17T10:45:47.995Z,9.20
2022-10-17T10:48:32.605Z,4.50
2022-10-17T10:51:13.269Z,4.67
2022-10-17T10:53:53.461Z,6.63
2022-10-17T10:56:23.166Z,4.43
2022-10-17T10:59:08.398Z,7.33
2022-10-17T11:02:32.984Z,5.00
2022-10-17T11:05:58.471Z,3.47
2022-10-17T11:08:50.648Z,3.97
2022-10-17T11:11:33.621Z,3.70
2022-10-17T11:17:52.608Z,4.83
2022-10-17T11:21:02.106Z,4.73
2022-10-17T11:24:14.401Z,4.07
2022-10-17T11:27:41.235Z,6.20
2022-10-17T11:31:08.108Z,4.63
2022-10-17T11:34:29.852Z,3.17
2022-10-17T11:37:56.287Z,6.97
2022-10-17T11:44:39.130Z,5.40
2022-10-17T11:47:35.135Z,5.53
2022-10-17T11:54:16.920Z,3.70
2022-10-17T11:57:29.531Z,5.17
2022-10-17T12:00:42.752Z,3.10
2022-10-17T12:04:08.408Z,3.50
2022-10-17T12:07:30.563Z,5.30
2022-10-17T12:10:40.320Z,5.10
2022-10-17T12:13:48.934Z,2.73
2022-10-17T14:50:32.167Z,3.27
2022-10-17T14:53:12.270Z,2.23
2022-10-17T14:56:38.894Z,1.73
2022-10-17T15:02:49.735Z,2.20
2022-10-17T15:05:17.081Z,2.70
2022-10-17T15:07:44.088Z,4.27
2022-10-17T15:10:43.294Z,5.53
2022-10-17T15:13:28.529Z,3.43
2022-10-17T15:15:57.070Z,4.07
2022-10-17T15:18:23.877Z,2.47
2022-10-17T15:20:59.475Z,2.27
2022-10-17T15:23:32.449Z,3.30
2022-10-17T15:25:59.128Z,5.17
2022-10-17T15:28:27.392Z,4.60
2022-10-17T15:30:54.338Z,4.30
2022-10-17T15:33:20.962Z,2.73
2022-10-17T15:35:47.979Z,1.60
2022-10-17T15:38:18.446Z,4.97
2022-10-17T15:40:48.910Z,5.33
2022-10-17T15:43:19.647Z,4.50
2022-10-17T15:45:46.955Z,4.37
2022-10-17T15:48:27.778Z,4.67
2022-10-17T15:50:54.591Z,3.53
2022-10-17T15:53:21.346Z,1.80
2022-10-17T15:55:50.966Z,3.00
2022-10-17T15:58:19.695Z,2.77
2022-10-17T16:00:47.125Z,4.00
2022-10-17T16:03:14.394Z,3.10
2022-10-17T16:05:41.296Z,2.40
2022-10-17T16:08:08.100Z,4.40
2022-10-17T16:10:37.286Z,6.10
2022-10-17T16:13:04.113Z,2.93
2022-10-17T16:15:30.899Z,4.00
2022-10-17T16:18:00.524Z,6.23
2022-10-17T16:20:29.667Z,3.15
2022-10-17T16:22:59.992Z,2.13
2022-10-17T16:25:29.013Z,4.60
2022-10-17T16:27:58.351Z,2.83
2022-10-17T16:30:27.524Z,3.00
2022-10-17T16:32:55.584Z,2.13
2022-10-17T16:35:33.290Z,5.27
2022-10-17T16:38:03.641Z,5.33
2022-10-17T16:40:30.447Z,5.20
2022-10-17T16:42:57.150Z,6.43
2022-10-17T16:45:23.897Z,6.90
2022-10-17T16:47:50.867Z,5.93
2022-10-17T16:50:18.646Z,5.97
2022-10-17T16:52:45.628Z,3.43
2022-10-17T16:55:12.413Z,4.73
2022-10-17T16:57:39.138Z,4.63
2022-10-17T17:00:26.529Z,3.87
2022-10-17T17:02:53.643Z,4.27
2022-10-17T17:05:20.268Z,7.97
2022-10-17T17:07:48.222Z,6.00
2022-10-17T17:10:15.031Z,6.83
2022-10-17T17:12:41.663Z,6.23
2022-10-17T17:15:08.763Z,5.50
2022-10-17T17:17:54.873Z,2.07
2022-10-17T17:20:22.281Z,3.67
2022-10-17T17:22:50.937Z,6.33
2022-10-17T17:25:17.677Z,4.13
2022-10-17T17:27:44.628Z,3.80
2022-10-17T17:30:11.795Z,3.27
2022-10-17T17:32:38.529Z,4.43
2022-10-17T17:35:06.125Z,4.80
2022-10-17T17:37:33.063Z,3.37
2022-10-17T17:39:59.948Z,3.93
2022-10-17T17:42:26.938Z,6.90
2022-10-17T17:44:53.623Z,4.17
2022-10-17T17:47:20.539Z,9.83
2022-10-17T17:52:45.704Z,6.27
2022-10-17T17:55:12.870Z,4.53
2022-10-17T17:57:39.539Z,3.77
2022-10-17T18:00:07.218Z,7.33
2022-10-17T18:02:34.026Z,6.73
2022-10-17T18:05:00.703Z,6.30
2022-10-17T18:07:28.090Z,9.50
2022-10-17T18:09:55.744Z,6.13
2022-10-17T18:12:22.921Z,8.97
2022-10-17T18:14:49.912Z,6.50
2022-10-17T18:17:16.606Z,8.13
2022-10-17T18:19:43.306Z,6.17
2022-10-17T18:22:11.023Z,6.73
2022-10-17T18:24:37.701Z,8.27
2022-10-17T18:27:04.543Z,8.87
2022-10-17T18:29:32.928Z,9.77
2022-10-17T18:32:00.101Z,7.13
2022-10-17T18:34:27.377Z,5.67
2022-10-17T18:36:54.827Z,5.27
2022-10-17T18:39:21.687Z,8.90
2022-10-17T18:41:48.327Z,6.23
2022-10-17T18:44:15.988Z,6.77
2022-10-17T18:46:43.138Z,9.73
2022-10-17T18:49:11.768Z,6.20
2022-10-17T18:51:39.015Z,6.80
2022-10-17T18:54:11.343Z,7.80
2022-10-17T18:56:38.285Z,6.75
2022-10-17T18:59:05.769Z,6.13
2022-10-17T19:01:32.483Z,8.53
2022-10-17T19:03:59.702Z,8.07
2022-10-17T19:06:32.188Z,5.47
2022-10-17T19:09:00.793Z,7.40
2022-10-17T19:11:29.038Z,12.53
2022-10-17T19:14:01.060Z,6.10
2022-10-17T19:16:37.297Z,5.97
2022-10-17T19:19:11.530Z,6.93
2022-10-17T19:21:38.373Z,9.33
2022-10-17T19:24:07.353Z,8.13
2022-10-17T19:26:36.135Z,6.23
2022-10-17T19:29:04.325Z,8.57
2022-10-17T19:31:31.851Z,10.63
2022-10-17T19:33:59.633Z,5.83
2022-10-17T19:36:32.277Z,5.93
2022-10-17T19:39:03.736Z,7.37
2022-10-17T19:41:30.958Z,10.47
2022-10-17T19:43:58.372Z,6.87
2022-10-17T19:46:27.220Z,6.60
2022-10-17T19:48:53.952Z,9.00
2022-10-17T19:51:24.588Z,8.47
2022-10-17T19:53:53.535Z,8.20
2022-10-17T19:56:22.483Z,7.40
2022-10-17T19:58:50.309Z,6.30
2022-10-17T20:01:20.334Z,5.03
2022-10-17T20:03:47.600Z,6.40
2022-10-17T20:06:14.776Z,8.00
2022-10-17T20:08:42.114Z,5.57
2022-10-17T20:11:13.394Z,10.27
2022-10-17T20:13:40.841Z,8.63
2022-10-17T20:16:10.972Z,6.37
2022-10-17T20:18:38.363Z,8.00
2022-10-17T20:21:07.957Z,8.73
2022-10-17T20:23:34.857Z,5.97
2022-10-17T20:26:08.129Z,10.47
2022-10-17T20:28:47.286Z,9.40
2022-10-17T20:31:14.930Z,8.27
2022-10-17T20:33:41.844Z,7.97
2022-10-17T20:36:10.752Z,7.07
2022-10-17T20:38:37.761Z,6.70
2022-10-17T20:41:06.840Z,8.60
2022-10-17T20:43:34.747Z,8.47
2022-10-17T20:46:09.809Z,6.83
2022-10-17T20:48:53.455Z,7.17
2022-10-17T20:51:21.137Z,5.95
2022-10-17T20:53:48.469Z,6.13
2022-10-17T20:56:22.515Z,9.47
2022-10-17T20:59:00.418Z,5.07
2022-10-17T21:01:28.430Z,8.73
2022-10-17T21:04:54.953Z,4.73
2022-10-17T21:08:21.622Z,8.83
2022-10-17T21:11:48.121Z,7.83
2022-10-17T21:15:14.947Z,12.60
2022-10-17T21:22:25.957Z,8.02
2022-10-17T21:25:52.379Z,7.60
2022-10-17T21:29:19.256Z,6.80
2022-10-17T21:32:53.227Z,8.27
2022-10-17T21:40:14.394Z,8.35
2022-10-17T21:43:40.849Z,9.30
2022-10-17T21:49:58.950Z,8.37
2022-10-17T21:53:25.506Z,11.57
2022-10-17T21:56:52.095Z,10.27
2022-10-17T22:04:00.444Z,15.97
2022-10-17T22:07:26.987Z,15.37
2022-10-17T22:10:53.962Z,12.17
2022-10-17T22:13:22.580Z,13.43
2022-10-17T22:15:49.287Z,11.00
2022-10-17T22:19:15.991Z,17.57
2022-10-17T22:26:35.525Z,16.83
2022-10-17T22:32:46.948Z,13.82
2022-10-17T22:36:13.395Z,18.27
2022-10-17T22:39:39.971Z,13.33
2022-10-17T22:43:17.537Z,13.30
2022-10-17T22:46:44.235Z,13.17
2022-10-17T22:50:10.608Z,12.57
2022-10-17T22:53:37.191Z,11.53
2022-10-17T22:57:03.628Z,13.00
2022-10-17T23:04:23.978Z,14.93
2022-10-17T23:07:50.387Z,11.23
2022-10-17T23:10:17.228Z,11.67
2022-10-17T23:12:43.957Z,12.03
2022-10-17T23:15:10.756Z,15.47
2022-10-17T23:17:37.618Z,14.03
2022-10-17T23:20:04.581Z,10.73
2022-10-17T23:22:31.502Z,13.97
2022-10-17T23:24:58.676Z,13.43
2022-10-17T23:27:25.360Z,14.87
2022-10-17T23:29:52.037Z,11.77
2022-10-17T23:32:20.894Z,12.63
2022-10-17T23:34:47.633Z,13.07
2022-10-17T23:37:14.238Z,13.37
2022-10-17T23:39:43.564Z,11.57
2022-10-17T23:42:10.209Z,10.90
2022-10-17T23:44:36.890Z,13.30
2022-10-17T23:47:03.732Z,14.47
2022-10-17T23:49:30.443Z,13.30
2022-10-17T23:51:57.096Z,11.67
2022-10-17T23:54:23.960Z,11.93
2022-10-17T23:56:50.630Z,11.97
2022-10-17T23:59:17.373Z,10.70
